Terminal Aerodrome Forecast
Issued by NWS

Home | Current Version | Previous Version | Text Only | Print | Product List | Glossary On
Versions: 1 2 3 4 5 6 7 8 9 10 11 12 13 14 15 16 17 18 19 20
847
FTUS43 KBIS 300522
TAFMOT
TAF
KMOT 300522Z 3006/3106 19005KT P6SM SCT200
     FM301800 05006KT P6SM BKN110
     FM302000 31009KT 5SM SHRA OVC060
     FM310100 01007KT P6SM -SHRA OVC050 WS005/35025KT
     FM310300 36006KT P6SM BKN040=

USA.gov is the U.S. government's official web portal to all federal, state and local government web resources and services.